Rankings de siempre
Mejores tiempos personales válidos de equipo a través de todos los eventos y temporadas. Cada equipo aparece una vez por división.
Busca por nombre y abre la página donde está clasificado este récord de división.
133,012 equipos clasificados
| Pos. | Pos. AG | Equipo | Nacionalidad | Categoría de edad | TiempoMejor tiempo | Diferencia |
|---|---|---|---|---|---|---|
| 127876 | #15756 | Sithembile Ngwenya & Sello KgagaraRSA · X 35-39 · AG #15756 | RSA | X 35-39 | 1:55:41 | +66:28 |
| 127877 | #44879 | Kardelen Koc & Aykut FidanFRA · X 30-34 · AG #44879 | FRA | X 30-34 | 1:55:41 | +66:28 |
| 127878 | #44880 | Rebecca Hart & Gregg WyllieGBR · X 30-34 · AG #44880 | GBR | X 30-34 | 1:55:41 | +66:28 |
| 127879 | #44881 | Christopher Spiers & Natalie NobleGBR · X 30-34 · AG #44881 | GBR | X 30-34 | 1:55:41 | +66:28 |
| 127880 | -- | Shayla Sanna & Ginael DongoX XU29 | -- | X XU29 | 1:55:41 | +66:28 |
| 127881 | #223 | Geert Verschueren & Conny De VeseleerBEL · X 60-64 · AG #223 | BEL | X 60-64 | 1:55:41 | +66:28 |
| 127882 | #513 | Charlotte Couchman & Mark GreenwoodGBR · X 55-59 · AG #513 | GBR | X 55-59 | 1:55:42 | +66:29 |
| 127883 | #15758 | Allen Goh & Erika LimX 35-39 · AG #15758 | -- | X 35-39 | 1:55:42 | +66:29 |
| 127884 | #17200 | 博喜 鈴木 & 松下 真実子JPN · X 40-44 · AG #17200 | JPN | X 40-44 | 1:55:42 | +66:29 |
| 127885 | #17198 | Joel Escobar Avendaño & Leticia Avendaño BautistaMEX · X 40-44 · AG #17198 | MEX | X 40-44 | 1:55:42 | +66:29 |
| 127886 | #17199 | Lucie Child & Paul ChildGBR · X 40-44 · AG #17199 | GBR | X 40-44 | 1:55:42 | +66:29 |
| 127887 | #2927 | Cheryl Chan & Claude StargenX 50-54 · AG #2927 | -- | X 50-54 | 1:55:42 | +66:29 |
| 127888 | #17201 | Scott Peterman & Simone McKennaX 40-44 · AG #17201 | -- | X 40-44 | 1:55:42 | +66:29 |
| 127889 | #44882 | Friederike Maximiliane Tschiersky & Philipp StremelGER · X 30-34 · AG #44882 | GER | X 30-34 | 1:55:42 | +66:29 |
| 127890 | #224 | Andy Lewis & Sarah DayGBR · X 60-64 · AG #224 | GBR | X 60-64 | 1:55:42 | +66:29 |
| 127891 | #19501 | Amy Carruthers & Daniel DewGBR · X 25-29 · AG #19501 | GBR | X 25-29 | 1:55:43 | +66:30 |
| 127892 | #44884 | Nattawuth Chinrungroj & Karatphet PaosopaTHA · X 30-34 · AG #44884 | THA | X 30-34 | 1:55:43 | +66:30 |
| 127893 | #44883 | Andina Sitoresmi & Daniel PanjaitanINA · X 30-34 · AG #44883 | INA | X 30-34 | 1:55:43 | +66:30 |
| 127894 | #17202 | Carina Schweim & Gunnar SchweimGER · X 40-44 · AG #17202 | GER | X 40-44 | 1:55:43 | +66:30 |
| 127895 | #19502 | Gabriel Ortiz & Alexa AlmonteX 25-29 · AG #19502 | -- | X 25-29 | 1:55:43 | +66:30 |
| 127896 | #17203 | Andrew King & Kim ParryNZL · X 40-44 · AG #17203 | NZL | X 40-44 | 1:55:44 | +66:31 |
| 127897 | #44886 | 文婷 吴 & 锡壮 韩CHN · X 30-34 · AG #44886 | CHN | X 30-34 | 1:55:44 | +66:31 |
| 127898 | #8713 | Mathilde Jay & Louis SanchezFRA · X 16-24 · AG #8713 | FRA | X 16-24 | 1:55:44 | +66:31 |
| 127899 | #44887 | 博文 于 & 子轶 陈CHN · X 30-34 · AG #44887 | CHN | X 30-34 | 1:55:44 | +66:31 |
| 127900 | #44885 | Lyndsey HANSEN & Brandon HANSENUSA · X 30-34 · AG #44885 | USA | X 30-34 | 1:55:44 | +66:31 |
Página 5,116 de 5,321